createdAt,value
2019-01-28T00:02:25.166Z,4.40
2019-01-28T00:04:51.547Z,4.17
2019-01-28T00:07:18.127Z,3.90
2019-01-28T00:09:44.641Z,4.10
2019-01-28T00:12:10.996Z,3.70
2019-01-28T00:14:37.334Z,3.90
2019-01-28T00:17:03.710Z,3.80
2019-01-28T00:19:30.136Z,3.73
2019-01-28T00:21:56.472Z,4.10
2019-01-28T00:24:22.811Z,4.13
2019-01-28T00:26:49.134Z,4.00
2019-01-28T00:29:15.542Z,4.07
2019-01-28T00:31:41.940Z,3.63
2019-01-28T00:34:08.297Z,3.90
2019-01-28T00:36:35.727Z,3.77
2019-01-28T00:39:00.985Z,4.20
2019-01-28T00:41:27.363Z,3.97
2019-01-28T00:43:53.691Z,4.00
2019-01-28T00:46:21.026Z,3.80
2019-01-28T00:48:46.442Z,4.17
2019-01-28T00:51:12.782Z,3.80
2019-01-28T00:53:39.110Z,3.77
2019-01-28T00:56:05.530Z,3.73
2019-01-28T00:58:32.109Z,4.00
2019-01-28T01:00:58.445Z,3.67
2019-01-28T01:03:24.779Z,3.60
2019-01-28T01:05:51.165Z,4.13
2019-01-28T01:08:17.608Z,4.50
2019-01-28T01:10:43.942Z,4.23
2019-01-28T01:13:10.301Z,4.20
2019-01-28T01:15:36.698Z,4.17
2019-01-28T01:18:03.062Z,4.20
2019-01-28T01:20:29.434Z,4.07
2019-01-28T01:22:55.829Z,3.87
2019-01-28T01:25:22.328Z,4.10
2019-01-28T01:27:48.664Z,3.80
2019-01-28T01:30:15.088Z,3.90
2019-01-28T01:32:41.462Z,3.87
2019-01-28T01:35:07.804Z,3.97
2019-01-28T01:37:34.115Z,3.63
2019-01-28T01:40:00.519Z,3.60
2019-01-28T01:42:26.853Z,3.37
2019-01-28T01:44:53.213Z,3.80
2019-01-28T01:47:19.543Z,4.30
2019-01-28T01:49:45.949Z,3.60
2019-01-28T01:52:12.283Z,3.20
2019-01-28T01:54:38.693Z,3.43
2019-01-28T01:57:05.066Z,3.63
2019-01-28T01:59:31.511Z,3.80
2019-01-28T02:01:57.887Z,4.50
2019-01-28T02:04:24.226Z,4.00
2019-01-28T02:06:50.567Z,3.50
2019-01-28T02:09:17.085Z,3.37
2019-01-28T02:11:43.603Z,3.77
2019-01-28T02:14:09.938Z,3.70
2019-01-28T02:16:36.277Z,3.43
2019-01-28T02:19:02.620Z,4.10
2019-01-28T02:21:28.952Z,3.57
2019-01-28T02:23:55.343Z,3.40
2019-01-28T02:26:21.669Z,4.20
2019-01-28T02:28:48.039Z,3.60
2019-01-28T02:31:14.431Z,3.53
2019-01-28T02:33:40.813Z,3.10
2019-01-28T02:36:07.169Z,3.40
2019-01-28T02:38:33.769Z,3.53
2019-01-28T02:41:00.242Z,3.80
2019-01-28T02:43:26.536Z,4.00
2019-01-28T02:45:52.960Z,4.00
2019-01-28T02:48:19.264Z,3.63
2019-01-28T02:50:45.602Z,3.97
2019-01-28T02:53:12.029Z,3.50
2019-01-28T02:55:38.326Z,3.70
2019-01-28T02:58:04.715Z,3.93
2019-01-28T03:00:31.073Z,3.80
2019-01-28T03:02:57.455Z,3.63
2019-01-28T03:05:23.897Z,4.10
2019-01-28T03:07:50.299Z,3.40
2019-01-28T03:10:16.766Z,3.83
2019-01-28T03:12:43.301Z,3.47
2019-01-28T03:15:09.694Z,3.43
2019-01-28T03:17:36.039Z,3.63
2019-01-28T03:20:02.370Z,3.10
2019-01-28T03:22:28.705Z,3.63
2019-01-28T03:24:55.125Z,3.47
2019-01-28T03:27:21.443Z,3.80
2019-01-28T03:29:47.810Z,3.53
2019-01-28T03:32:14.227Z,3.50
2019-01-28T03:34:40.590Z,3.70
2019-01-28T03:37:06.908Z,3.70
2019-01-28T03:39:33.239Z,3.40
2019-01-28T03:41:59.622Z,3.37
2019-01-28T03:44:25.965Z,3.30
2019-01-28T03:46:52.356Z,3.13
2019-01-28T03:49:18.749Z,3.63
2019-01-28T03:51:45.107Z,3.60
2019-01-28T03:54:11.437Z,4.20
2019-01-28T03:56:37.825Z,3.60
2019-01-28T03:59:04.203Z,3.43
2019-01-28T04:01:30.543Z,3.50
2019-01-28T04:03:56.940Z,3.30
2019-01-28T04:06:23.381Z,3.40
2019-01-28T04:08:53.212Z,3.77
2019-01-28T04:11:19.608Z,3.70
2019-01-28T04:13:46.064Z,3.53
2019-01-28T04:16:12.487Z,2.80
2019-01-28T04:18:38.831Z,3.93
2019-01-28T04:21:05.241Z,3.23
2019-01-28T04:23:31.700Z,3.27
2019-01-28T04:25:58.107Z,3.30
2019-01-28T04:28:24.386Z,3.80
2019-01-28T04:30:50.754Z,3.20
2019-01-28T04:33:17.223Z,3.13
2019-01-28T04:35:43.566Z,3.33
2019-01-28T04:38:09.909Z,3.70
2019-01-28T04:40:36.239Z,3.10
2019-01-28T04:43:02.634Z,3.23
2019-01-28T04:45:29.036Z,3.70
2019-01-28T04:47:55.370Z,3.20
2019-01-28T04:50:21.728Z,3.60
2019-01-28T04:52:48.070Z,3.43
2019-01-28T04:55:14.486Z,3.43
2019-01-28T04:57:40.940Z,3.00
2019-01-28T05:00:07.347Z,3.20
2019-01-28T05:02:33.800Z,3.10
2019-01-28T05:05:00.306Z,3.00
2019-01-28T05:07:26.582Z,3.10
2019-01-28T05:09:53.002Z,3.20
2019-01-28T05:12:19.410Z,3.17
2019-01-28T05:14:46.014Z,2.83
2019-01-28T05:17:12.379Z,3.10
2019-01-28T05:19:38.709Z,3.00
2019-01-28T05:22:05.129Z,2.67
2019-01-28T05:24:31.415Z,3.10
2019-01-28T05:26:57.823Z,3.17
2019-01-28T05:29:24.246Z,2.90
2019-01-28T05:31:50.561Z,3.30
2019-01-28T05:34:16.900Z,2.97
2019-01-28T05:36:43.206Z,3.17
2019-01-28T05:39:09.621Z,2.90
2019-01-28T05:41:35.988Z,3.40
2019-01-28T05:44:02.318Z,3.33
2019-01-28T05:46:28.677Z,3.20
2019-01-28T05:48:55.014Z,2.77
2019-01-28T05:51:21.411Z,2.63
2019-01-28T05:53:47.684Z,3.20
2019-01-28T05:56:14.071Z,3.20
2019-01-28T05:58:40.409Z,3.17
2019-01-28T06:01:06.763Z,3.77
2019-01-28T06:03:33.095Z,3.37
2019-01-28T06:05:59.429Z,3.20
2019-01-28T06:08:25.765Z,3.77
2019-01-28T06:10:52.213Z,3.37
2019-01-28T06:13:18.545Z,3.57
2019-01-28T06:15:45.007Z,3.37
2019-01-28T06:18:11.561Z,3.90
2019-01-28T06:20:38.092Z,4.00
2019-01-28T06:23:04.445Z,3.80
2019-01-28T06:25:30.861Z,4.60
2019-01-28T06:27:57.203Z,4.27
2019-01-28T06:30:24.204Z,5.57
2019-01-28T06:32:50.565Z,4.27
2019-01-28T06:35:17.040Z,4.70
2019-01-28T06:37:43.429Z,5.50
2019-01-28T06:40:09.821Z,4.57
2019-01-28T06:42:36.374Z,4.40
2019-01-28T06:45:02.688Z,5.20
2019-01-28T06:47:29.036Z,4.00
2019-01-28T06:49:55.436Z,3.73
2019-01-28T06:52:21.788Z,4.57
2019-01-28T06:54:48.122Z,4.73
2019-01-28T06:57:14.541Z,4.50
2019-01-28T06:59:40.842Z,4.33
2019-01-28T07:02:07.219Z,4.77
2019-01-28T07:04:33.827Z,4.27
2019-01-28T07:07:00.115Z,4.37
2019-01-28T07:09:26.626Z,4.40
2019-01-28T07:11:52.924Z,3.63
2019-01-28T07:14:19.354Z,5.13
2019-01-28T07:16:45.734Z,4.70
2019-01-28T07:19:12.043Z,4.30
2019-01-28T07:21:38.524Z,3.40
2019-01-28T07:24:04.855Z,3.33
2019-01-28T07:26:31.267Z,4.00
2019-01-28T07:28:57.740Z,4.10
2019-01-28T07:31:24.134Z,3.43
2019-01-28T07:33:50.591Z,3.83
2019-01-28T07:36:17.127Z,3.67
2019-01-28T07:38:43.942Z,3.30
2019-01-28T07:41:12.756Z,3.90
2019-01-28T07:43:39.474Z,3.73
2019-01-28T07:46:08.359Z,3.33
2019-01-28T07:48:35.044Z,3.53
2019-01-28T07:51:02.511Z,3.50
2019-01-28T07:53:28.895Z,3.50
2019-01-28T07:55:55.697Z,4.43
2019-01-28T07:58:22.197Z,4.43
2019-01-28T08:00:48.601Z,4.60
2019-01-28T08:03:15.074Z,6.97
2019-01-28T08:05:41.510Z,4.40
2019-01-28T08:08:07.921Z,4.80
2019-01-28T08:10:34.288Z,4.70
2019-01-28T08:13:00.656Z,3.97
2019-01-28T08:15:26.988Z,4.60
2019-01-28T08:17:53.371Z,4.37
2019-01-28T08:20:20.012Z,4.90
2019-01-28T08:22:46.387Z,4.73
2019-01-28T08:25:12.727Z,3.80
2019-01-28T08:27:39.510Z,4.13
2019-01-28T08:30:05.906Z,4.10
2019-01-28T08:32:32.374Z,4.00
2019-01-28T08:34:58.719Z,4.70
2019-01-28T08:37:25.086Z,4.77
2019-01-28T08:39:51.458Z,3.70
2019-01-28T08:42:17.830Z,4.03
2019-01-28T08:44:44.139Z,5.07
2019-01-28T08:47:10.570Z,4.17
2019-01-28T08:49:36.906Z,3.33
2019-01-28T08:52:03.275Z,3.97
2019-01-28T08:54:29.666Z,3.80
2019-01-28T08:56:56.070Z,3.83
2019-01-28T08:59:22.507Z,4.20
2019-01-28T09:01:48.903Z,4.53
2019-01-28T09:04:15.278Z,3.73
2019-01-28T09:06:41.670Z,4.43
2019-01-28T09:09:08.025Z,4.03
2019-01-28T09:11:34.456Z,4.37
2019-01-28T09:14:01.123Z,3.97
2019-01-28T09:16:27.527Z,3.97
2019-01-28T09:18:53.894Z,3.90
2019-01-28T09:21:20.278Z,3.90
2019-01-28T09:23:46.602Z,3.53
2019-01-28T09:26:13.032Z,4.00
2019-01-28T09:28:39.485Z,3.67
2019-01-28T09:31:05.856Z,3.90
2019-01-28T09:33:32.279Z,4.43
2019-01-28T09:35:58.655Z,3.90
2019-01-28T09:38:25.121Z,4.17
2019-01-28T09:40:51.476Z,3.07
2019-01-28T09:43:17.888Z,3.83
2019-01-28T09:45:44.315Z,3.83
2019-01-28T09:48:10.720Z,3.93
2019-01-28T09:50:37.083Z,4.10
2019-01-28T09:53:03.508Z,4.30
2019-01-28T09:55:29.836Z,4.00
2019-01-28T09:57:56.218Z,3.27
2019-01-28T10:00:22.710Z,3.80
2019-01-28T10:02:49.140Z,3.60
2019-01-28T10:05:15.546Z,4.00
2019-01-28T10:07:41.968Z,3.30
2019-01-28T10:10:08.323Z,3.47
2019-01-28T10:12:34.782Z,3.37
2019-01-28T10:15:01.076Z,3.40
2019-01-28T10:17:27.517Z,3.13
2019-01-28T10:19:53.764Z,3.20
2019-01-28T10:22:20.179Z,3.60
2019-01-28T10:24:46.637Z,2.97
2019-01-28T10:27:13.019Z,3.20
2019-01-28T10:29:39.402Z,3.37
2019-01-28T10:32:05.783Z,3.23
2019-01-28T10:34:32.199Z,2.97
2019-01-28T10:36:58.558Z,2.70
2019-01-28T10:39:24.992Z,3.20
2019-01-28T10:41:51.421Z,3.10
2019-01-28T10:44:17.782Z,3.60
2019-01-28T10:46:44.153Z,3.90
2019-01-28T10:49:10.595Z,3.10
2019-01-28T10:51:37.082Z,3.10
2019-01-28T10:54:03.482Z,3.80
2019-01-28T10:56:29.931Z,3.57
2019-01-28T10:58:58.000Z,3.13
2019-01-28T11:01:22.814Z,3.30
2019-01-28T11:03:49.149Z,3.20
2019-01-28T11:06:15.513Z,3.00
2019-01-28T11:08:41.923Z,3.00
2019-01-28T11:11:08.241Z,3.13
2019-01-28T11:13:34.832Z,3.07
2019-01-28T11:16:01.136Z,3.00
2019-01-28T11:18:27.569Z,2.70
2019-01-28T11:20:54.048Z,2.77
2019-01-28T11:23:20.423Z,3.50
2019-01-28T11:25:47.039Z,3.20
2019-01-28T11:28:13.332Z,2.80
2019-01-28T11:30:39.995Z,3.13
2019-01-28T11:33:06.273Z,2.57
2019-01-28T11:35:32.745Z,2.57
2019-01-28T11:37:59.121Z,3.10
2019-01-28T11:40:25.334Z,2.50
2019-01-28T11:42:51.765Z,2.97
2019-01-28T11:45:18.228Z,3.00
2019-01-28T11:47:44.532Z,2.60
2019-01-28T11:50:10.926Z,2.70
2019-01-28T11:52:37.360Z,2.70
2019-01-28T11:55:04.424Z,2.70
2019-01-28T11:57:31.937Z,2.60
2019-01-28T11:59:58.323Z,2.67
2019-01-28T12:02:24.755Z,2.60
2019-01-28T12:04:51.192Z,3.73
2019-01-28T12:07:17.671Z,2.90
2019-01-28T12:09:44.103Z,2.60
2019-01-28T12:12:10.875Z,2.20
2019-01-28T12:14:37.236Z,2.50
2019-01-28T12:17:03.810Z,2.20
2019-01-28T12:19:30.411Z,2.37
2019-01-28T12:21:56.985Z,2.13
2019-01-28T12:24:23.402Z,2.40
2019-01-28T12:26:49.807Z,2.40
2019-01-28T12:29:16.347Z,1.90
2019-01-28T12:31:42.746Z,2.30
2019-01-28T12:34:09.213Z,2.30
2019-01-28T12:36:35.642Z,2.70
2019-01-28T12:39:02.007Z,2.63
2019-01-28T12:41:28.476Z,2.33
2019-01-28T12:43:55.000Z,3.10
2019-01-28T12:46:21.552Z,2.40
2019-01-28T12:48:47.981Z,2.40
2019-01-28T12:51:14.421Z,2.67
2019-01-28T12:53:40.898Z,4.03
2019-01-28T12:56:08.513Z,3.10
2019-01-28T12:58:34.839Z,2.30
2019-01-28T13:01:01.329Z,2.60
2019-01-28T13:03:27.726Z,2.70
2019-01-28T13:05:55.187Z,2.90
2019-01-28T13:08:21.544Z,2.83
2019-01-28T13:10:48.034Z,3.10
2019-01-28T13:13:14.354Z,2.77
2019-01-28T13:15:40.760Z,2.50
2019-01-28T13:18:07.161Z,2.53
2019-01-28T13:20:33.551Z,2.80
2019-01-28T13:23:00.029Z,2.73
2019-01-28T13:25:26.428Z,2.80
2019-01-28T13:27:52.889Z,2.90
2019-01-28T13:30:19.308Z,2.43
2019-01-28T13:32:45.667Z,2.80
2019-01-28T13:35:12.058Z,2.70
2019-01-28T13:37:38.414Z,2.97
2019-01-28T13:40:04.862Z,2.53
2019-01-28T13:42:31.283Z,3.23
2019-01-28T13:44:59.625Z,2.80
2019-01-28T13:47:24.095Z,2.53
2019-01-28T13:49:50.610Z,3.13
2019-01-28T13:52:16.919Z,2.27
2019-01-28T13:54:43.365Z,2.20
2019-01-28T13:57:09.724Z,2.20
2019-01-28T13:59:36.774Z,2.30
2019-01-28T14:02:03.279Z,2.30
2019-01-28T14:04:29.689Z,1.90
2019-01-28T14:06:56.092Z,2.50
2019-01-28T14:09:22.425Z,2.30
2019-01-28T14:11:48.775Z,2.70
2019-01-28T14:14:15.234Z,1.97
2019-01-28T14:16:41.672Z,2.03
2019-01-28T14:19:08.177Z,2.10
2019-01-28T14:21:34.581Z,2.37
2019-01-28T14:24:00.937Z,2.17
2019-01-28T14:26:27.333Z,2.10
2019-01-28T14:28:53.925Z,1.83
2019-01-28T14:31:20.211Z,1.80
2019-01-28T14:33:46.634Z,1.90
2019-01-28T14:36:12.931Z,1.90
2019-01-28T14:38:39.292Z,1.97
2019-01-28T14:41:05.759Z,1.80
2019-01-28T14:43:32.131Z,2.10
2019-01-28T14:45:58.632Z,1.83
2019-01-28T14:48:25.031Z,2.30
2019-01-28T14:50:51.458Z,2.00
2019-01-28T14:53:17.968Z,1.87
2019-01-28T14:55:50.414Z,1.90
2019-01-28T14:58:16.915Z,1.93
2019-01-28T15:00:43.090Z,1.60
2019-01-28T15:03:09.471Z,1.93
2019-01-28T15:05:35.871Z,2.10
2019-01-28T15:08:02.235Z,2.33
2019-01-28T15:10:28.666Z,2.13
2019-01-28T15:12:55.020Z,2.13
2019-01-28T15:15:21.437Z,1.90
2019-01-28T15:17:47.731Z,2.13
2019-01-28T15:20:14.097Z,2.30
2019-01-28T15:22:40.595Z,1.93
2019-01-28T15:25:06.919Z,2.20
2019-01-28T15:27:33.294Z,2.30
2019-01-28T15:29:59.662Z,2.40
2019-01-28T15:32:26.075Z,2.30
2019-01-28T15:34:52.428Z,2.43
2019-01-28T15:37:18.787Z,2.03
2019-01-28T15:39:45.323Z,1.83
2019-01-28T15:42:11.634Z,2.60
2019-01-28T15:44:37.990Z,1.97
2019-01-28T15:47:04.346Z,2.20
2019-01-28T15:49:30.718Z,2.00
2019-01-28T15:51:57.048Z,2.27
2019-01-28T15:54:23.446Z,2.43
2019-01-28T15:56:49.777Z,1.70
2019-01-28T15:59:16.148Z,1.60
2019-01-28T16:01:42.490Z,1.70
2019-01-28T16:04:08.861Z,2.23
2019-01-28T16:06:35.190Z,2.60
2019-01-28T16:09:01.606Z,2.00
2019-01-28T16:11:27.929Z,2.10
2019-01-28T16:13:54.290Z,2.13
2019-01-28T16:16:20.620Z,2.33
2019-01-28T16:18:46.998Z,2.13
2019-01-28T16:21:13.424Z,2.50
2019-01-28T16:23:39.816Z,2.50
2019-01-28T16:26:06.135Z,2.40
2019-01-28T16:28:32.478Z,2.73
2019-01-28T16:30:58.825Z,2.43
2019-01-28T16:33:25.245Z,2.37
2019-01-28T16:35:51.563Z,2.50
2019-01-28T16:38:17.915Z,2.60
2019-01-28T16:40:44.245Z,2.57
2019-01-28T16:43:10.595Z,2.40
2019-01-28T16:45:36.998Z,2.60
2019-01-28T16:48:03.339Z,2.40
2019-01-28T16:50:29.711Z,2.30
2019-01-28T16:52:56.061Z,2.17
2019-01-28T16:55:22.389Z,2.23
2019-01-28T16:57:48.755Z,2.13
2019-01-28T17:00:15.090Z,2.30
2019-01-28T17:02:41.469Z,2.00
2019-01-28T17:05:07.855Z,2.30
2019-01-28T17:07:34.168Z,1.80
2019-01-28T17:10:00.516Z,1.90
2019-01-28T17:12:26.861Z,2.10
2019-01-28T17:14:53.215Z,2.27
2019-01-28T17:17:19.569Z,2.37
2019-01-28T17:19:45.948Z,2.10
2019-01-28T17:22:12.291Z,2.17
2019-01-28T17:24:38.635Z,2.37
2019-01-28T17:27:04.964Z,2.23
2019-01-28T17:29:31.341Z,2.33
2019-01-28T17:31:57.885Z,2.30
2019-01-28T17:34:24.230Z,2.00
2019-01-28T17:36:50.586Z,2.10
2019-01-28T17:39:17.001Z,2.03
2019-01-28T17:41:43.351Z,1.60
2019-01-28T17:44:09.635Z,1.93
2019-01-28T17:46:35.975Z,2.10
2019-01-28T17:49:02.314Z,1.57
2019-01-28T17:51:28.696Z,2.10
2019-01-28T17:53:55.027Z,2.03
2019-01-28T17:56:21.375Z,1.57
2019-01-28T17:58:47.853Z,2.00
2019-01-28T18:01:14.110Z,1.73
2019-01-28T18:03:40.482Z,2.13
2019-01-28T18:06:06.873Z,2.00
2019-01-28T18:08:33.218Z,2.00
2019-01-28T18:10:59.613Z,1.70
2019-01-28T18:13:25.881Z,2.03
2019-01-28T18:15:52.208Z,2.20
2019-01-28T18:18:18.605Z,2.13
2019-01-28T18:20:51.532Z,2.10
2019-01-28T18:23:11.356Z,2.00
2019-01-28T18:25:37.692Z,2.20
2019-01-28T18:28:04.029Z,2.10
2019-01-28T18:30:30.411Z,2.23
2019-01-28T18:32:56.743Z,2.03
2019-01-28T18:35:23.122Z,1.90
2019-01-28T18:37:49.469Z,2.03
2019-01-28T18:40:15.860Z,1.77
2019-01-28T18:42:42.167Z,2.27
2019-01-28T18:45:08.491Z,2.37
2019-01-28T18:47:34.827Z,2.30
2019-01-28T18:50:01.189Z,1.90
2019-01-28T18:52:27.628Z,1.87
2019-01-28T18:54:54.004Z,2.20
2019-01-28T18:57:20.390Z,2.40
2019-01-28T18:59:46.677Z,2.10
2019-01-28T19:02:13.063Z,1.90
2019-01-28T19:04:39.489Z,2.07
2019-01-28T19:07:05.862Z,1.80
2019-01-28T19:09:32.245Z,2.40
2019-01-28T19:11:58.584Z,2.20
2019-01-28T19:14:24.947Z,2.47
2019-01-28T19:16:51.346Z,2.10
2019-01-28T19:19:17.716Z,2.40
2019-01-28T19:21:44.135Z,2.17
2019-01-28T19:24:10.552Z,2.50
2019-01-28T19:26:36.903Z,2.50
2019-01-28T19:29:03.261Z,2.00
2019-01-28T19:31:29.676Z,2.43
2019-01-28T19:33:56.034Z,2.33
2019-01-28T19:36:22.371Z,2.10
2019-01-28T19:38:48.738Z,2.57
2019-01-28T19:41:15.103Z,2.43
2019-01-28T19:43:41.409Z,2.50
2019-01-28T19:46:07.773Z,2.53
2019-01-28T19:48:34.120Z,2.47
2019-01-28T19:51:00.544Z,2.60
2019-01-28T19:53:26.853Z,2.67
2019-01-28T19:55:53.244Z,2.60
2019-01-28T19:58:19.563Z,2.63
2019-01-28T20:00:46.011Z,2.90
2019-01-28T20:03:12.474Z,2.90
2019-01-28T20:05:38.814Z,2.80
2019-01-28T20:08:05.168Z,2.80
2019-01-28T20:10:31.512Z,3.07
2019-01-28T20:12:57.885Z,2.80
2019-01-28T20:15:24.330Z,3.10
2019-01-28T20:17:50.597Z,2.97
2019-01-28T20:20:17.003Z,2.53
2019-01-28T20:22:43.349Z,3.10
2019-01-28T20:25:09.803Z,3.10
2019-01-28T20:27:36.106Z,3.30
2019-01-28T20:30:02.479Z,3.30
2019-01-28T20:32:28.796Z,3.13
2019-01-28T20:34:55.146Z,3.50
2019-01-28T20:37:21.551Z,3.33
2019-01-28T20:39:47.945Z,3.80
2019-01-28T20:42:14.251Z,2.87
2019-01-28T20:44:40.533Z,3.33
2019-01-28T20:47:07.002Z,4.10
2019-01-28T20:49:33.329Z,3.80
2019-01-28T20:51:59.706Z,3.30
2019-01-28T20:54:26.049Z,3.50
2019-01-28T20:56:52.381Z,3.97
2019-01-28T20:59:18.776Z,3.87
2019-01-28T21:01:45.236Z,4.00
2019-01-28T21:04:11.613Z,3.47
2019-01-28T21:06:37.964Z,3.77
2019-01-28T21:09:04.287Z,3.77
2019-01-28T21:11:30.841Z,3.90
2019-01-28T21:13:57.208Z,4.57
2019-01-28T21:16:23.577Z,3.80
2019-01-28T21:18:49.934Z,3.90
2019-01-28T21:21:16.267Z,4.10
2019-01-28T21:23:42.654Z,3.37
2019-01-28T21:26:09.003Z,4.50
2019-01-28T21:28:35.403Z,4.63
2019-01-28T21:31:01.666Z,4.60
2019-01-28T21:33:28.096Z,4.60
2019-01-28T21:35:54.416Z,4.00
2019-01-28T21:38:20.751Z,3.80
2019-01-28T21:40:47.116Z,4.37
2019-01-28T21:43:13.441Z,4.00
2019-01-28T21:45:39.797Z,4.50
2019-01-28T21:48:06.188Z,4.97
2019-01-28T21:50:32.587Z,4.00
2019-01-28T21:52:58.918Z,4.57
2019-01-28T21:55:25.244Z,4.53
2019-01-28T21:57:51.631Z,4.60
2019-01-28T22:00:18.068Z,4.80
2019-01-28T22:02:44.362Z,4.67
2019-01-28T22:05:10.684Z,4.77
2019-01-28T22:07:37.023Z,4.73
2019-01-28T22:10:03.459Z,4.50
2019-01-28T22:12:29.824Z,4.90
2019-01-28T22:14:56.173Z,4.60
2019-01-28T22:17:22.506Z,4.87
2019-01-28T22:19:48.897Z,4.90
2019-01-28T22:22:15.264Z,4.53
2019-01-28T22:24:41.637Z,4.63
2019-01-28T22:27:07.943Z,4.73
2019-01-28T22:29:34.360Z,4.50
2019-01-28T22:32:00.637Z,4.50
2019-01-28T22:34:27.019Z,4.70
2019-01-28T22:36:53.349Z,4.80
2019-01-28T22:39:19.690Z,4.53
2019-01-28T22:41:46.085Z,5.07
2019-01-28T22:44:12.421Z,4.53
2019-01-28T22:46:38.806Z,5.17
2019-01-28T22:49:05.137Z,4.73
2019-01-28T22:51:31.486Z,5.30
2019-01-28T22:53:57.827Z,4.60
2019-01-28T22:56:24.209Z,4.67
2019-01-28T22:58:50.593Z,4.40
2019-01-28T23:01:16.943Z,4.90
2019-01-28T23:03:43.298Z,4.40
2019-01-28T23:06:09.632Z,4.53
2019-01-28T23:08:36.006Z,4.30
2019-01-28T23:11:02.337Z,4.40
2019-01-28T23:13:28.706Z,4.80
2019-01-28T23:15:55.015Z,4.70
2019-01-28T23:18:21.384Z,4.63
2019-01-28T23:20:47.739Z,4.33
2019-01-28T23:23:14.075Z,4.10
2019-01-28T23:25:40.432Z,4.00
2019-01-28T23:28:06.833Z,4.20
2019-01-28T23:30:33.194Z,4.60
2019-01-28T23:32:59.566Z,4.83
2019-01-28T23:35:26.015Z,4.40
2019-01-28T23:37:52.345Z,4.10
2019-01-28T23:40:18.679Z,4.80
2019-01-28T23:42:44.946Z,4.40
2019-01-28T23:45:11.342Z,4.50
2019-01-28T23:47:37.705Z,3.80
2019-01-28T23:50:04.142Z,4.00
2019-01-28T23:52:30.496Z,4.73
2019-01-28T23:54:56.925Z,3.90
2019-01-28T23:57:23.255Z,4.00
2019-01-28T23:59:49.630Z,5.30
